sensor_id;sensor_type;location;lat;lon;timestamp;pressure;altitude;pressure_sealevel;temperature;humidity
61740;BME280;47645;45.288;12.038;2023-01-28T00:01:58;1016.1390560949487;;;3.3787109375;75.05746328092695
61740;BME280;47645;45.288;12.038;2023-01-28T00:11:58;1016.1476908236923;;;3.57734375;73.41334787507911
61740;BME280;47645;45.288;12.038;2023-01-28T00:21:59;1016.162300358254;;;3.7609375;72.49781106131789
61740;BME280;47645;45.288;12.038;2023-01-28T00:31:59;1016.1489645992509;;;3.8119140625;72.38247235063527
61740;BME280;47645;45.288;12.038;2023-01-28T00:42:00;1016.0691349224733;;;3.990234375;71.27904106154126
61740;BME280;47645;45.288;12.038;2023-01-28T00:52:00;1016.0608495226293;;;3.6232421875;73.05493841299793
61740;BME280;47645;45.288;12.038;2023-01-28T01:02:11;1016.0198251680143;;;3.5978515625;72.59873889418483
61740;BME280;47645;45.288;12.038;2023-01-28T01:12:00;1016.0683647565788;;;3.4857421875;74.29717947731714
61740;BME280;47645;45.288;12.038;2023-01-28T01:22:01;1015.9386243470549;;;3.69453125;75.07466427878433
61740;BME280;47645;45.288;12.038;2023-01-28T01:32:01;1015.9521918077371;;;3.796484375;73.18489746846082
61740;BME280;47645;45.288;12.038;2023-01-28T01:42:02;1016.156330409559;;;3.582421875;72.98671153187493
61740;BME280;47645;45.288;12.038;2023-01-28T01:52:07;1016.3074184461658;;;2.9556640625;75.6087340379657
61740;BME280;47645;45.288;12.038;2023-01-28T02:02:04;1016.3579051428294;;;2.6294921875;75.65547684953428
61740;BME280;47645;45.288;12.038;2023-01-28T02:12:07;1016.3434987505519;;;2.2931640625;77.48889089467453
61740;BME280;47645;45.288;12.038;2023-01-28T02:22:12;1016.3621594820908;;;2.140234375;77.59852663361559
61740;BME280;47645;45.288;12.038;2023-01-28T02:32:07;1016.3490739303968;;;2.216796875;77.110802565099
61740;BME280;47645;45.288;12.038;2023-01-28T02:42:06;1016.380324377802;;;2.01796875;77.82675171049505
61740;BME280;47645;45.288;12.038;2023-01-28T02:52:15;1016.4654349251947;;;1.8345703125;77.37830233069701
61740;BME280;47645;45.288;12.038;2023-01-28T03:02:10;1016.4336772110423;;;1.9771484375;76.97334722434984
61740;BME280;47645;45.288;12.038;2023-01-28T03:42:08;1016.6308483766942;;;1.82421875;76.4369983859493
61740;BME280;47645;45.288;12.038;2023-01-28T03:52:06;1016.7120174578484;;;1.79375;76.29906055799941
61740;BME280;47645;45.288;12.038;2023-01-28T04:02:06;1016.6560063762466;;;1.99765625;75.15770631861774
61740;BME280;47645;45.288;12.038;2023-01-28T04:12:06;1016.7081551773482;;;2.0486328125;74.37650301350598
61740;BME280;47645;45.288;12.038;2023-01-28T04:22:10;1016.7164960283667;;;2.23203125;73.64727288881926
61740;BME280;47645;45.288;12.038;2023-01-28T04:32:06;1016.7364681655857;;;2.1810546875;73.32624891112279
61740;BME280;47645;45.288;12.038;2023-01-28T04:42:07;1016.9059072832949;;;2.11484375;73.42412412113765
61740;BME280;47645;45.288;12.038;2023-01-28T04:52:07;1017.054157558458;;;2.0994140625;73.36240506039518
61740;BME280;47645;45.288;12.038;2023-01-28T05:02:07;1017.092287720276;;;2.0638671875;73.96010979383725
61740;BME280;47645;45.288;12.038;2023-01-28T05:12:08;1017.1911067197315;;;2.002734375;74.27575244829968
61740;BME280;47645;45.288;12.038;2023-01-28T05:22:08;1017.2797844666353;;;1.8548828125;74.01675004822192
61740;BME280;47645;45.288;12.038;2023-01-28T05:32:08;1017.360482781585;;;1.90078125;74.2177428302974
61740;BME280;47645;45.288;12.038;2023-01-28T05:42:08;1017.4842705833918;;;1.9466796875;74.14461616756613
61740;BME280;47645;45.288;12.038;2023-01-28T05:52:08;1017.6108988819982;;;1.808984375;74.47601340999023
61740;BME280;47645;45.288;12.038;2023-01-28T06:02:09;1017.7057111991514;;;1.7275390625;74.18569379743113
61740;BME280;47645;45.288;12.038;2023-01-28T06:12:09;1017.7720652639094;;;1.7275390625;74.84391052364221
61740;BME280;47645;45.288;12.038;2023-01-28T06:22:10;1017.8252957453894;;;1.6560546875;74.9631422501758
61740;BME280;47645;45.288;12.038;2023-01-28T06:32:10;1017.9096972998533;;;1.559375;75.30215662952
61740;BME280;47645;45.288;12.038;2023-01-28T06:42:10;1018.0885767405082;;;1.4982421875;75.36777638182254
61740;BME280;47645;45.288;12.038;2023-01-28T06:52:10;1018.2425825935794;;;1.3453125;75.40234123401568
61740;BME280;47645;45.288;12.038;2023-01-28T07:02:11;1018.3025463251454;;;1.5083984375;75.21049103192986
61740;BME280;47645;45.288;12.038;2023-01-28T07:12:11;1018.3879168244077;;;1.58984375;74.81616348644161
61740;BME280;47645;45.288;12.038;2023-01-28T07:22:11;1018.449491496489;;;1.605078125;74.85516567814895
61740;BME280;47645;45.288;12.038;2023-01-28T07:32:11;1018.4803980351635;;;1.778515625;74.40206305990334
61740;BME280;47645;45.288;12.038;2023-01-28T07:42:12;1018.5451857390527;;;2.221875;74.19059466867438
61740;BME280;47645;45.288;12.038;2023-01-28T07:52:12;1018.6323758417777;;;2.48671875;72.29942130621116
61740;BME280;47645;45.288;12.038;2023-01-28T08:02:13;1018.7946747156493;;;2.548046875;72.30408862481569
61740;BME280;47645;45.288;12.038;2023-01-28T08:12:12;1018.8290709683533;;;2.8078125;72.09718230017054
61740;BME280;47645;45.288;12.038;2023-01-28T08:22:12;1018.9037694409639;;;3.03203125;70.99448231365653
61740;BME280;47645;45.288;12.038;2023-01-28T08:32:13;1018.9616982824821;;;2.9505859375;70.62805872637065
61740;BME280;47645;45.288;12.038;2023-01-28T08:42:13;1019.044495624894;;;3.0984375;69.29286488480398
61740;BME280;47645;45.288;12.038;2023-01-28T08:52:13;1019.1099346659281;;;3.1646484375;68.6917600627452
61740;BME280;47645;45.288;12.038;2023-01-28T09:02:14;1019.1983809072578;;;3.317578125;67.53156910782111
61740;BME280;47645;45.288;12.038;2023-01-28T09:12:14;1019.3164484631188;;;3.796484375;66.68868540229562
61740;BME280;47645;45.288;12.038;2023-01-28T09:22:14;1019.424539558698;;;4.2501953125;65.96294371193233
61740;BME280;47645;45.288;12.038;2023-01-28T09:32:14;1019.5448298734159;;;4.5814453125;62.323108625161126
61740;BME280;47645;45.288;12.038;2023-01-28T09:42:30;1019.5337554696991;;;5.004296875;59.71499979914717
61740;BME280;47645;45.288;12.038;2023-01-28T09:52:18;1019.5424717164351;;;5.6822265625;58.663720537156465
61740;BME280;47645;45.288;12.038;2023-01-28T10:02:25;1019.5174998030087;;;5.99296875;57.308829367293825
61740;BME280;47645;45.288;12.038;2023-01-28T10:12:28;1019.4718829139496;;;6.3396484375;52.908202660290804
61740;BME280;47645;45.288;12.038;2023-01-28T10:22:19;1019.3277812064694;;;6.7982421875;51.859862553171055
61740;BME280;47645;45.288;12.038;2023-01-28T10:32:22;1019.2667219907753;;;7.175390625;48.39056748068709
61740;BME280;47645;45.288;12.038;2023-01-28T10:42:27;1019.281336280847;;;7.2875;48.93802892741854
61740;BME280;47645;45.288;12.038;2023-01-28T10:52:18;1019.214818337876;;;7.4099609375;48.15737926475856
61740;BME280;47645;45.288;12.038;2023-01-28T11:02:24;1019.1324687150984;;;7.93984375;46.65557804465343
61740;BME280;47645;45.288;12.038;2023-01-28T11:12:20;1019.1030608375868;;;8.0927734375;45.572382692044116
61740;BME280;47645;45.288;12.038;2023-01-28T11:22:25;1018.9906936100024;;;8.378125;47.4896256475744
61740;BME280;47645;45.288;12.038;2023-01-28T11:32:20;1018.9249420409167;;;8.7552734375;44.85290577226267
61740;BME280;47645;45.288;12.038;2023-01-28T11:42:21;1018.7464919819632;;;8.898046875;45.00599930442579
61740;BME280;47645;45.288;12.038;2023-01-28T11:52:28;1018.6785515181333;;;9.4484375;44.4726964972314
61740;BME280;47645;45.288;12.038;2023-01-28T12:02:34;1018.6927960062836;;;9.2751953125;42.96046698198133
61740;BME280;47645;45.288;12.038;2023-01-28T12:12:38;1018.5698396005733;;;9.5095703125;43.852853083709455
61740;BME280;47645;45.288;12.038;2023-01-28T12:22:41;1018.4711586571912;;;9.7287109375;46.45172028419371
61740;BME280;47645;45.288;12.038;2023-01-28T12:32:34;1018.44834443396;;;9.8103515625;43.47036404145761
61740;BME280;47645;45.288;12.038;2023-01-28T12:42:30;1018.3123724075407;;;10.182421875;49.264286942295946
61740;BME280;47645;45.288;12.038;2023-01-28T12:52:27;1018.4090303795073;;;9.7134765625;43.04389625230748
61740;BME280;47645;45.288;12.038;2023-01-28T13:02:26;1018.4708599359844;;;9.12734375;44.34497693274452
61740;BME280;47645;45.288;12.038;2023-01-28T13:12:24;1018.4829857089812;;;8.9287109375;45.42533043708597
61740;BME280;47645;45.288;12.038;2023-01-28T13:22:29;1018.4555411100704;;;8.8369140625;45.395901641280666
61740;BME280;47645;45.288;12.038;2023-01-28T13:32:29;1018.5143161220863;;;9.0814453125;44.942064847125756
61740;BME280;47645;45.288;12.038;2023-01-28T13:42:28;1018.5474542765479;;;9.2853515625;44.97899825135268
61740;BME280;47645;45.288;12.038;2023-01-28T13:52:28;1018.6005932932037;;;9.4638671875;45.798112304440046
61740;BME280;47645;45.288;12.038;2023-01-28T14:02:39;1018.653614320165;;;8.8470703125;51.21457135212575
61740;BME280;47645;45.288;12.038;2023-01-28T14:12:41;1018.6990597116022;;;9.22421875;52.64233141988933
61740;BME280;47645;45.288;12.038;2023-01-28T14:22:28;1018.8499275656031;;;8.877734375;45.58644334468459
61740;BME280;47645;45.288;12.038;2023-01-28T14:32:30;1018.9302269120542;;;9.4689453125;56.45414579625007
61740;BME280;47645;45.288;12.038;2023-01-28T14:42:31;1019.0678784249926;;;9.0408203125;47.56038517252868
61740;BME280;47645;45.288;12.038;2023-01-28T14:52:48;1019.0566302311305;;;9.2955078125;57.96723613626774
61740;BME280;47645;45.288;12.038;2023-01-28T15:02:30;1019.1650630370027;;;8.597265625;49.68562487487368
61740;BME280;47645;45.288;12.038;2023-01-28T15:12:34;1019.20451160981;;;8.332421875;52.01079123736029
61740;BME280;47645;45.288;12.038;2023-01-28T15:22:31;1019.1524002539855;;;8.11328125;54.33926528703766
61740;BME280;47645;45.288;12.038;2023-01-28T15:32:32;1019.3197915801434;;;8.34765625;54.6319309360181
61740;BME280;47645;45.288;12.038;2023-01-28T15:42:33;1019.3394360122891;;;7.9908203125;55.40695226983462
61740;BME280;47645;45.288;12.038;2023-01-28T15:52:34;1019.4315308971143;;;7.7462890625;56.5178613709994
61740;BME280;47645;45.288;12.038;2023-01-28T16:02:37;1019.5253020987012;;;7.2365234375;57.410617533874195
61740;BME280;47645;45.288;12.038;2023-01-28T16:12:33;1019.6994247801708;;;7.0888671875;58.99938867171243
61740;BME280;47645;45.288;12.038;2023-01-28T16:22:35;1019.792573115536;;;6.726953125;60.441595237483604
61740;BME280;47645;45.288;12.038;2023-01-28T16:32:35;1019.8611311787691;;;6.4875;62.2641734902137
61740;BME280;47645;45.288;12.038;2023-01-28T16:42:35;1019.9170439087424;;;6.268359375;63.80228447504371
61740;BME280;47645;45.288;12.038;2023-01-28T16:52:35;1020.0506896268826;;;5.860546875;65.1503621603596
61740;BME280;47645;45.288;12.038;2023-01-28T17:02:35;1020.1742863641697;;;5.508984375;65.13825983199895
61740;BME280;47645;45.288;12.038;2023-01-28T17:12:36;1020.2772328884598;;;5.187890625;65.09023054575442
61740;BME280;47645;45.288;12.038;2023-01-28T17:22:36;1020.3736948621038;;;4.96875;66.17011575332366
61740;BME280;47645;45.288;12.038;2023-01-28T17:32:37;1020.5223462078972;;;4.9279296875;65.59032105216784
61740;BME280;47645;45.288;12.038;2023-01-28T17:42:37;1020.6264428432746;;;4.76484375;67.34812283081646
61740;BME280;47645;45.288;12.038;2023-01-28T17:52:38;1020.7893250124613;;;4.5763671875;68.45023307951661
61740;BME280;47645;45.288;12.038;2023-01-28T18:02:38;1020.8996001345602;;;4.4794921875;68.75714453768407
61740;BME280;47645;45.288;12.038;2023-01-28T18:12:38;1021.0240872144211;;;4.3927734375;67.69111722481313
61740;BME280;47645;45.288;12.038;2023-01-28T18:22:39;1021.1164181142617;;;4.23984375;68.11840196844953
61740;BME280;47645;45.288;12.038;2023-01-28T18:32:40;1021.2338068220274;;;4.1431640625;68.16622590337676
61740;BME280;47645;45.288;12.038;2023-01-28T18:42:39;1021.3426413799475;;;4.1533203125;67.66192535716844
61740;BME280;47645;45.288;12.038;2023-01-28T18:52:40;1021.3847382402331;;;3.862890625;68.65557798502124
61740;BME280;47645;45.288;12.038;2023-01-28T19:02:40;1021.4893814950142;;;3.79140625;69.28041447935873
61740;BME280;47645;45.288;12.038;2023-01-28T19:12:40;1021.5497635390061;;;3.7609375;70.57073622809968
61740;BME280;47645;45.288;12.038;2023-01-28T19:22:42;1021.6047491752396;;;3.8015625;71.7192072162606
61740;BME280;47645;45.288;12.038;2023-01-28T19:32:42;1021.604053305451;;;3.8322265625;73.66906160878044
61740;BME280;47645;45.288;12.038;2023-01-28T19:42:42;1021.7318083148131;;;3.7302734375;75.97410110797085
61740;BME280;47645;45.288;12.038;2023-01-28T19:52:42;1021.7909063142241;;;3.8169921875;77.22350217262854
61740;BME280;47645;45.288;12.038;2023-01-28T20:02:42;1021.8460390120621;;;4.0361328125;76.91639513072383
61740;BME280;47645;45.288;12.038;2023-01-28T20:12:43;1021.9866841309598;;;4.0666015625;77.0997323526344
61740;BME280;47645;45.288;12.038;2023-01-28T20:22:43;1022.0376518986968;;;4.08203125;77.39056496700647
61740;BME280;47645;45.288;12.038;2023-01-28T20:32:43;1022.1491109005764;;;3.9646484375;78.42371162998813
61740;BME280;47645;45.288;12.038;2023-01-28T20:42:44;1022.318235836854;;;3.7150390625;80.03208174490616
61740;BME280;47645;45.288;12.038;2023-01-28T20:52:43;1022.4625194619318;;;3.455078125;81.3311716514946
61740;BME280;47645;45.288;12.038;2023-01-28T21:02:45;1022.5139864952399;;;3.2001953125;81.48075954596689
61740;BME280;47645;45.288;12.038;2023-01-28T21:12:44;1022.6697014530955;;;3.0677734375;81.81571873368955
61740;BME280;47645;45.288;12.038;2023-01-28T21:22:49;1022.8164566035789;;;2.81796875;81.69090419912776
61740;BME280;47645;45.288;12.038;2023-01-28T21:32:44;1022.8479947302511;;;2.5275390625;81.4411215115203
61740;BME280;47645;45.288;12.038;2023-01-28T21:42:45;1022.9622114638573;;;2.45625;81.5713028985205
61740;BME280;47645;45.288;12.038;2023-01-28T21:52:47;1023.0323451075451;;;2.3083984375;81.90337743288916
61740;BME280;47645;45.288;12.038;2023-01-28T22:02:45;1023.056002181148;;;2.2728515625;81.80823232287766
61740;BME280;47645;45.288;12.038;2023-01-28T22:12:45;1023.1585999674845;;;2.237109375;81.7767315960265
61740;BME280;47645;45.288;12.038;2023-01-28T22:22:46;1023.1937162442637;;;2.3390625;81.65692974826847
61740;BME280;47645;45.288;12.038;2023-01-28T22:32:47;1023.274136869519;;;2.237109375;81.9442429555364
61740;BME280;47645;45.288;12.038;2023-01-28T22:42:46;1023.3728364450371;;;2.2421875;82.4140527404244
61740;BME280;47645;45.288;12.038;2023-01-28T22:52:47;1023.4716202519572;;;2.0943359375;83.21292551909879
61740;BME280;47645;45.288;12.038;2023-01-28T23:02:47;1023.3943470928446;;;2.247265625;82.61414339076254
61740;BME280;47645;45.288;12.038;2023-01-28T23:12:53;1023.4875333346969;;;2.45625;82.21824627654347
61740;BME280;47645;45.288;12.038;2023-01-28T23:32:48;1023.536452877503;;;2.6193359375;81.36414617526577
61740;BME280;47645;45.288;12.038;2023-01-28T23:42:49;1023.6089255023967;;;2.6193359375;81.17957701637579
61740;BME280;47645;45.288;12.038;2023-01-28T23:52:48;1023.67094850329;;;2.5224609375;81.04537389184807
